Wah Cantt Weather



Wah Cantt's Current Weather

Temprature 31.35o clear sky

clear sky

Rain: 0 %

Min Temprature31o
Max Temprature31.67o
Humidity79
Wind Speed4.1 m/h
Sun Rise05:29:42
Sun Set18:58:20
Current Time: 13-Aug-2020 19:39:51
Lat/Lon: 33.79, 72.73




Wah Cantt's Geo Location



Wah Cantt's Weather Forecast

Time Overall Temp Min Temp Max Temp Humidity Wind Speed Rain
13-Aug-2020 (Thu)
20:00:00 clear sky 31.510 31.510 31.670 70 3.61 m/h 0 %
23:00:00 light rain 30.150 29.820 30.150 71 6.14 m/h 16 %
14-Aug-2020 (Fri)
02:00:00 light rain 28.400 28.200 28.400 78 4.87 m/h 174 %
05:00:00 moderate rain 27.260 27.230 27.260 80 3.84 m/h 527 %
08:00:00 light rain 29.500 29.500 29.500 70 4.02 m/h 33 %
11:00:00 light rain 33.030 33.030 33.030 58 5.03 m/h 74 %
14:00:00 moderate rain 34.770 34.770 34.770 51 3.13 m/h 348 %
17:00:00 light rain 34.640 34.640 34.640 52 3.34 m/h 11 %
20:00:00 clear sky 30.680 30.680 30.680 64 3.35 m/h 0 %
23:00:00 light rain 29.650 29.650 29.650 65 3.8 m/h 23 %
15-Aug-2020 (Sat)
02:00:00 moderate rain 27.340 27.340 27.340 79 2.36 m/h 402 %
05:00:00 light rain 27.130 27.130 27.130 80 1.49 m/h 220 %
08:00:00 light rain 29.760 29.760 29.760 68 1.69 m/h 92 %
11:00:00 light rain 33.670 33.670 33.670 56 2.51 m/h 14 %
14:00:00 light rain 36.550 36.550 36.550 44 2.39 m/h 74 %
17:00:00 few clouds 35.330 35.330 35.330 51 3.86 m/h 0 %
20:00:00 clear sky 31.860 31.860 31.860 61 2.94 m/h 0 %
23:00:00 clear sky 30.820 30.820 30.820 62 2.74 m/h 0 %
16-Aug-2020 (Sun)
02:00:00 light rain 29.380 29.380 29.380 67 2.7 m/h 62 %
05:00:00 light rain 28.270 28.270 28.270 74 2.87 m/h 235 %
08:00:00 broken clouds 30.760 30.760 30.760 65 2.8 m/h 0 %
11:00:00 scattered clouds 34.370 34.370 34.370 53 2.94 m/h 0 %
14:00:00 light rain 35.800 35.800 35.800 48 1.59 m/h 13 %
17:00:00 scattered clouds 36.520 36.520 36.520 46 2.6 m/h 0 %
20:00:00 clear sky 31.870 31.870 31.870 63 3.87 m/h 0 %
23:00:00 clear sky 30.980 30.980 30.980 64 3.53 m/h 0 %
17-Aug-2020 (Mon)
02:00:00 light rain 30.070 30.070 30.070 67 2.82 m/h 27 %
05:00:00 light rain 29.070 29.070 29.070 73 2.94 m/h 141 %
08:00:00 moderate rain 30.000 30.000 30.000 72 4.87 m/h 821 %
11:00:00 moderate rain 33.250 33.250 33.250 59 3.19 m/h 596 %
14:00:00 light rain 35.500 35.500 35.500 51 3.67 m/h 31 %
17:00:00 light rain 34.200 34.200 34.200 57 5.55 m/h 38 %
20:00:00 clear sky 30.930 30.930 30.930 64 3.9 m/h 0 %
23:00:00 clear sky 29.980 29.980 29.980 67 3.03 m/h 0 %
18-Aug-2020 (Tue)
02:00:00 light rain 28.930 28.930 28.930 71 3.14 m/h 67 %
05:00:00 moderate rain 26.950 26.950 26.950 83 2.2 m/h 710 %
08:00:00 moderate rain 29.410 29.410 29.410 74 3.65 m/h 381 %
11:00:00 moderate rain 33.250 33.250 33.250 61 4.62 m/h 393 %
14:00:00 light rain 35.890 35.890 35.890 50 4.11 m/h 99 %
17:00:00 light rain 33.980 33.980 33.980 58 5.77 m/h 17 %

Famous Cities (60)